createdAt,value
2023-03-26T00:02:00.575Z,2.40
2023-03-26T00:08:18.548Z,1.53
2023-03-26T00:11:30.059Z,1.50
2023-03-26T00:14:32.614Z,1.63
2023-03-26T00:17:34.600Z,1.80
2023-03-26T00:20:40.606Z,1.70
2023-03-26T00:23:43.187Z,2.17
2023-03-26T00:26:53.169Z,1.63
2023-03-26T00:30:03.589Z,1.70
2023-03-26T00:33:07.731Z,1.40
2023-03-26T00:36:14.690Z,1.90
2023-03-26T00:39:17.740Z,1.90
2023-03-26T00:42:29.351Z,1.77
2023-03-26T00:45:32.976Z,1.40
2023-03-26T00:48:44.338Z,1.90
2023-03-26T00:51:46.953Z,1.80
2023-03-26T00:54:52.038Z,1.50
2023-03-26T00:57:55.553Z,2.25
2023-03-26T01:01:03.227Z,1.73
2023-03-26T01:04:40.319Z,1.60
2023-03-26T01:07:50.102Z,1.70
2023-03-26T01:10:53.740Z,1.73
2023-03-26T01:14:25.774Z,1.90
2023-03-26T01:17:39.751Z,1.65
2023-03-26T01:20:49.677Z,1.70
2023-03-26T01:24:05.707Z,1.60
2023-03-26T01:31:10.282Z,1.42
2023-03-26T01:34:18.339Z,1.38
2023-03-26T01:37:41.347Z,1.70
2023-03-26T01:41:07.515Z,1.70
2023-03-26T01:44:40.664Z,1.80
2023-03-26T01:47:44.140Z,1.65
2023-03-26T01:54:07.887Z,1.70
2023-03-26T01:57:20.320Z,1.95
2023-03-26T02:00:32.193Z,1.70
2023-03-26T02:03:46.999Z,1.73
2023-03-26T02:07:06.083Z,1.65
2023-03-26T02:10:28.767Z,1.60
2023-03-26T02:13:31.872Z,1.58
2023-03-26T02:16:39.563Z,1.58
2023-03-26T02:19:42.792Z,1.95
2023-03-26T02:22:45.941Z,1.67
2023-03-26T02:25:49.651Z,1.63
2023-03-26T02:28:51.498Z,1.70
2023-03-26T02:31:53.869Z,1.40
2023-03-26T02:38:14.406Z,1.60
2023-03-26T02:41:17.157Z,1.92
2023-03-26T02:44:42.465Z,1.95
2023-03-26T02:48:10.164Z,2.05
2023-03-26T02:51:18.332Z,2.10
2023-03-26T02:54:42.307Z,1.55
2023-03-26T02:57:52.914Z,1.80
2023-03-26T03:01:03.206Z,1.90
2023-03-26T03:04:12.247Z,1.83
2023-03-26T03:07:17.256Z,1.90
2023-03-26T03:10:21.851Z,1.80
2023-03-26T03:14:08.276Z,1.70
2023-03-26T03:17:10.804Z,1.70
2023-03-26T03:20:25.719Z,1.88
2023-03-26T03:23:33.151Z,1.88
2023-03-26T03:26:50.248Z,1.70
2023-03-26T03:30:08.955Z,1.85
2023-03-26T03:33:41.829Z,1.80
2023-03-26T03:36:48.352Z,1.70
2023-03-26T03:40:05.518Z,1.52
2023-03-26T03:49:40.795Z,1.67
2023-03-26T03:52:42.480Z,1.58
2023-03-26T03:55:54.362Z,1.52
2023-03-26T03:59:01.894Z,1.90
2023-03-26T04:02:08.901Z,1.80
2023-03-26T04:05:20.316Z,1.60
2023-03-26T04:08:25.052Z,1.70
2023-03-26T04:11:31.136Z,1.70
2023-03-26T04:15:07.915Z,2.00
2023-03-26T04:18:10.632Z,1.83
2023-03-26T04:21:15.890Z,2.08
2023-03-26T04:24:19.678Z,1.80
2023-03-26T04:27:43.413Z,1.70
2023-03-26T04:31:24.250Z,2.20
2023-03-26T04:37:57.048Z,1.80
2023-03-26T04:41:11.370Z,1.80
2023-03-26T04:44:22.592Z,1.80
2023-03-26T04:47:46.368Z,1.85
2023-03-26T04:50:48.525Z,1.80
2023-03-26T04:53:58.226Z,1.63
2023-03-26T04:57:17.618Z,1.70
2023-03-26T05:00:38.899Z,2.10
2023-03-26T05:03:46.693Z,1.65
2023-03-26T05:06:50.491Z,1.75
2023-03-26T05:09:57.994Z,1.85
2023-03-26T05:13:33.064Z,1.70
2023-03-26T05:16:41.419Z,1.60
2023-03-26T05:19:43.899Z,1.77
2023-03-26T05:22:45.607Z,2.38
2023-03-26T05:26:04.096Z,1.70
2023-03-26T05:29:05.718Z,1.50
2023-03-26T05:32:12.112Z,1.92
2023-03-26T05:35:16.997Z,2.05
2023-03-26T05:38:19.222Z,1.60
2023-03-26T05:41:47.082Z,1.90
2023-03-26T05:44:56.125Z,1.80
2023-03-26T05:48:02.072Z,2.55
2023-03-26T05:51:04.796Z,1.70
2023-03-26T05:54:07.511Z,1.90
2023-03-26T05:57:41.420Z,1.75
2023-03-26T06:01:22.675Z,1.75
2023-03-26T06:04:42.984Z,1.98
2023-03-26T06:08:07.761Z,1.63
2023-03-26T06:11:16.666Z,1.77
2023-03-26T06:14:19.082Z,1.77
2023-03-26T06:18:00.217Z,1.92
2023-03-26T06:21:37.190Z,2.03
2023-03-26T06:24:58.531Z,1.70
2023-03-26T06:28:17.337Z,1.60
2023-03-26T06:31:43.439Z,2.03
2023-03-26T06:35:09.476Z,2.00
2023-03-26T06:38:11.977Z,1.90
2023-03-26T06:41:16.885Z,2.00
2023-03-26T06:44:31.787Z,1.60
2023-03-26T06:47:52.242Z,2.75
2023-03-26T06:50:54.502Z,1.90
2023-03-26T06:54:17.353Z,2.15
2023-03-26T06:57:39.457Z,2.20
2023-03-26T07:01:02.386Z,2.30
2023-03-26T07:04:25.947Z,1.60
2023-03-26T07:07:48.316Z,1.90
2023-03-26T07:11:08.708Z,1.85
2023-03-26T07:14:30.522Z,1.48
2023-03-26T07:17:52.903Z,1.63
2023-03-26T07:21:01.749Z,1.95
2023-03-26T07:24:31.484Z,1.90
2023-03-26T07:28:14.167Z,2.17
2023-03-26T07:31:42.251Z,2.10
2023-03-26T07:35:21.455Z,1.80
2023-03-26T07:38:58.115Z,2.95
2023-03-26T07:42:50.852Z,2.47
2023-03-26T07:46:34.454Z,2.00
2023-03-26T07:49:57.899Z,1.70
2023-03-26T07:53:18.748Z,1.55
2023-03-26T07:56:35.253Z,1.50
2023-03-26T08:00:12.395Z,2.00
2023-03-26T08:03:27.823Z,1.98
2023-03-26T08:07:10.538Z,2.10
2023-03-26T08:11:07.352Z,1.95
2023-03-26T08:14:42.002Z,2.10
2023-03-26T08:17:54.354Z,2.00
2023-03-26T08:21:28.231Z,5.80
2023-03-26T08:25:02.459Z,2.70
2023-03-26T08:28:24.605Z,1.70
2023-03-26T08:31:39.183Z,1.67
2023-03-26T08:34:41.034Z,2.10
2023-03-26T08:37:45.223Z,1.70
2023-03-26T08:41:11.891Z,1.52
2023-03-26T08:44:51.392Z,2.00
2023-03-26T08:47:59.337Z,1.70
2023-03-26T08:51:21.192Z,1.50
2023-03-26T08:54:57.319Z,1.42
2023-03-26T08:58:39.183Z,1.40
2023-03-26T09:02:13.723Z,1.30
2023-03-26T09:05:21.344Z,1.50
2023-03-26T09:08:53.595Z,1.70
2023-03-26T09:15:57.019Z,1.38
2023-03-26T09:19:39.631Z,1.30
2023-03-26T09:23:00.352Z,1.20
2023-03-26T09:26:41.537Z,1.60
2023-03-26T09:30:22.700Z,1.67
2023-03-26T09:33:52.188Z,1.50
2023-03-26T09:37:22.552Z,1.40
2023-03-26T09:40:53.156Z,1.90
2023-03-26T09:44:00.975Z,1.30
2023-03-26T09:47:23.185Z,1.33
2023-03-26T09:51:03.711Z,1.30
2023-03-26T09:54:44.319Z,1.42
2023-03-26T09:58:11.299Z,2.35
2023-03-26T10:01:29.243Z,1.48
2023-03-26T10:04:53.500Z,1.50
2023-03-26T10:08:06.707Z,2.10
2023-03-26T10:11:32.578Z,1.52
2023-03-26T10:14:53.777Z,1.60
2023-03-26T10:18:46.748Z,1.85
2023-03-26T10:26:08.480Z,1.52
2023-03-26T10:29:30.833Z,1.60
2023-03-26T10:32:46.590Z,1.70
2023-03-26T10:36:30.893Z,1.60
2023-03-26T10:39:46.317Z,1.50
2023-03-26T10:43:29.328Z,1.63
2023-03-26T10:46:57.612Z,1.60
2023-03-26T10:50:49.677Z,1.60
2023-03-26T10:54:21.241Z,1.50
2023-03-26T10:57:52.367Z,1.20
2023-03-26T11:01:24.024Z,1.30
2023-03-26T11:05:04.218Z,1.10
2023-03-26T11:08:31.840Z,1.30
2023-03-26T11:12:27.888Z,1.20
2023-03-26T11:15:38.098Z,1.20
2023-03-26T11:19:04.408Z,1.50
2023-03-26T11:22:34.789Z,1.30
2023-03-26T11:26:03.866Z,1.13
2023-03-26T11:33:07.678Z,1.17
2023-03-26T11:36:14.191Z,1.27
2023-03-26T11:39:40.318Z,1.20
2023-03-26T11:42:43.944Z,1.30
2023-03-26T11:45:48.538Z,1.38
2023-03-26T11:49:03.262Z,1.40
2023-03-26T11:52:12.387Z,1.48
2023-03-26T11:55:16.948Z,1.45
2023-03-26T11:58:31.074Z,1.17
2023-03-26T12:01:57.139Z,1.20
2023-03-26T12:05:21.320Z,1.30
2023-03-26T12:08:32.507Z,1.40
2023-03-26T12:11:35.824Z,1.30
2023-03-26T12:14:42.826Z,1.60
2023-03-26T12:17:47.165Z,1.30
2023-03-26T12:27:52.854Z,1.17
2023-03-26T12:31:19.054Z,1.50
2023-03-26T12:34:36.592Z,1.50
2023-03-26T12:37:44.622Z,1.50
2023-03-26T12:40:46.958Z,1.55
2023-03-26T12:44:55.725Z,1.55
2023-03-26T12:48:04.039Z,1.80
2023-03-26T12:51:31.576Z,1.40
2023-03-26T12:54:56.386Z,1.40
2023-03-26T12:58:26.150Z,1.50
2023-03-26T13:01:46.264Z,1.67
2023-03-26T13:05:21.237Z,1.58
2023-03-26T13:09:01.064Z,1.60
2023-03-26T13:12:21.042Z,1.67
2023-03-26T13:15:38.572Z,1.95
2023-03-26T13:19:21.387Z,1.50
2023-03-26T13:22:29.911Z,1.70
2023-03-26T13:25:53.215Z,1.50
2023-03-26T13:29:04.248Z,1.70
2023-03-26T13:32:18.159Z,1.50
2023-03-26T13:35:45.669Z,1.77
2023-03-26T13:39:03.177Z,1.67
2023-03-26T13:42:23.521Z,1.52
2023-03-26T13:45:58.418Z,1.73
2023-03-26T13:49:45.829Z,1.50
2023-03-26T13:52:52.994Z,1.67
2023-03-26T13:55:59.110Z,1.40
2023-03-26T13:59:16.969Z,1.30
2023-03-26T14:02:24.108Z,1.40
2023-03-26T14:05:37.724Z,1.35
2023-03-26T14:08:45.989Z,1.30
2023-03-26T14:12:00.237Z,1.50
2023-03-26T14:15:10.799Z,1.60
2023-03-26T14:18:56.642Z,2.30
2023-03-26T14:22:27.430Z,1.70
2023-03-26T14:25:38.317Z,2.20
2023-03-26T14:29:09.800Z,1.77
2023-03-26T14:32:25.575Z,1.60
2023-03-26T14:35:49.934Z,1.70
2023-03-26T14:39:12.546Z,1.70
2023-03-26T14:42:14.646Z,1.50
2023-03-26T14:45:42.677Z,1.70
2023-03-26T14:52:45.366Z,1.60
2023-03-26T14:56:19.510Z,2.00
2023-03-26T14:59:51.584Z,1.80
2023-03-26T15:03:25.970Z,1.70
2023-03-26T15:07:07.369Z,1.52
2023-03-26T15:10:53.738Z,2.00
2023-03-26T15:14:33.148Z,1.50
2023-03-26T15:18:21.632Z,1.77
2023-03-26T15:21:45.976Z,1.67
2023-03-26T15:24:56.391Z,1.38
2023-03-26T15:28:32.290Z,1.38
2023-03-26T15:31:40.937Z,1.70
2023-03-26T15:35:06.915Z,1.75
2023-03-26T15:38:38.482Z,1.55
2023-03-26T15:42:18.180Z,1.80
2023-03-26T15:45:57.046Z,1.80
2023-03-26T15:49:36.307Z,2.10
2023-03-26T15:53:02.893Z,2.00
2023-03-26T15:56:19.471Z,1.80
2023-03-26T16:00:15.349Z,1.95
2023-03-26T16:03:48.297Z,1.50
2023-03-26T16:06:59.092Z,2.00
2023-03-26T16:10:28.498Z,1.77
2023-03-26T16:13:34.519Z,1.75
2023-03-26T16:16:54.791Z,1.50
2023-03-26T16:20:38.586Z,1.40
2023-03-26T16:23:47.693Z,1.50
2023-03-26T16:26:52.359Z,1.60
2023-03-26T16:30:15.901Z,1.50
2023-03-26T16:33:21.158Z,1.77
2023-03-26T16:36:36.829Z,1.80
2023-03-26T16:39:44.247Z,1.95
2023-03-26T16:42:55.045Z,1.58
2023-03-26T16:46:09.585Z,1.60
2023-03-26T16:49:47.613Z,1.58
2023-03-26T16:53:42.708Z,1.80
2023-03-26T16:57:00.685Z,1.52
2023-03-26T17:00:40.545Z,2.47
2023-03-26T17:03:54.043Z,1.60
2023-03-26T17:07:03.382Z,2.00
2023-03-26T17:10:31.876Z,1.50
2023-03-26T17:14:17.853Z,2.13
2023-03-26T17:17:27.655Z,2.30
2023-03-26T17:21:14.540Z,2.42
2023-03-26T17:24:38.889Z,2.30
2023-03-26T17:28:24.439Z,3.00
2023-03-26T17:31:53.044Z,2.00
2023-03-26T17:35:00.631Z,2.30
2023-03-26T17:38:15.663Z,7.57
2023-03-26T17:45:20.530Z,3.42
2023-03-26T17:48:28.245Z,2.15
2023-03-26T17:51:40.811Z,4.72
2023-03-26T17:54:49.148Z,4.15
2023-03-26T17:58:06.179Z,3.38
2023-03-26T18:04:39.863Z,1.92
2023-03-26T18:08:13.826Z,5.50
2023-03-26T18:11:41.196Z,4.30
2023-03-26T18:14:57.347Z,3.10
2023-03-26T18:18:10.945Z,3.50
2023-03-26T18:21:23.709Z,2.13
2023-03-26T18:24:40.391Z,3.53
2023-03-26T18:27:42.253Z,2.53
2023-03-26T18:30:55.286Z,5.05
2023-03-26T18:34:24.406Z,3.22
2023-03-26T18:41:23.856Z,7.68
2023-03-26T18:44:25.615Z,7.45
2023-03-26T18:47:29.712Z,4.55
2023-03-26T18:50:38.734Z,4.03
2023-03-26T18:53:51.481Z,2.95
2023-03-26T18:56:53.125Z,2.30
2023-03-26T19:00:21.260Z,4.13
2023-03-26T19:03:24.406Z,3.08
2023-03-26T19:06:29.000Z,3.17
2023-03-26T19:09:32.448Z,2.60
2023-03-26T19:12:35.747Z,2.20
2023-03-26T19:15:41.245Z,2.63
2023-03-26T19:18:50.402Z,2.45
2023-03-26T19:21:52.848Z,2.15
2023-03-26T19:25:04.620Z,2.03
2023-03-26T19:28:15.330Z,2.10
2023-03-26T19:31:36.519Z,1.77
2023-03-26T19:34:41.612Z,1.70
2023-03-26T19:38:41.331Z,1.60
2023-03-26T19:41:51.572Z,1.70
2023-03-26T19:44:56.330Z,1.63
2023-03-26T19:48:14.477Z,1.60
2023-03-26T19:51:37.305Z,1.63
2023-03-26T19:58:31.091Z,1.45
2023-03-26T20:01:33.319Z,1.60
2023-03-26T20:04:34.998Z,2.72
2023-03-26T20:07:39.597Z,1.75
2023-03-26T20:10:43.072Z,1.75
2023-03-26T20:13:48.759Z,1.67
2023-03-26T20:16:51.691Z,1.77
2023-03-26T20:19:54.249Z,1.50
2023-03-26T20:22:56.630Z,1.48
2023-03-26T20:25:58.410Z,1.67
2023-03-26T20:29:00.124Z,1.80
2023-03-26T20:32:09.292Z,1.73
2023-03-26T20:35:35.475Z,1.80
2023-03-26T20:38:40.165Z,1.70
2023-03-26T20:41:47.582Z,1.60
2023-03-26T20:45:02.437Z,1.50
2023-03-26T20:48:04.049Z,1.75
2023-03-26T20:51:13.956Z,1.30
2023-03-26T20:54:24.586Z,1.50
2023-03-26T20:57:26.364Z,1.40
2023-03-26T21:03:46.666Z,1.50
2023-03-26T21:06:49.148Z,1.33
2023-03-26T21:09:50.948Z,1.27
2023-03-26T21:13:34.846Z,1.40
2023-03-26T21:16:37.298Z,1.52
2023-03-26T21:19:39.178Z,1.42
2023-03-26T21:23:06.679Z,1.42
2023-03-26T21:29:13.906Z,1.40
2023-03-26T21:32:15.695Z,1.60
2023-03-26T21:35:18.166Z,1.80
2023-03-26T21:38:23.886Z,1.55
2023-03-26T21:42:05.180Z,1.50
2023-03-26T21:45:08.996Z,1.40
2023-03-26T21:48:16.125Z,1.30
2023-03-26T21:51:18.462Z,1.80
2023-03-26T21:54:27.977Z,1.70
2023-03-26T21:58:15.179Z,1.58
2023-03-26T22:01:38.600Z,1.70
2023-03-26T22:04:51.866Z,1.60
2023-03-26T22:07:59.651Z,1.63
2023-03-26T22:11:01.413Z,1.63
2023-03-26T22:14:09.368Z,1.50
2023-03-26T22:17:10.946Z,1.40
2023-03-26T22:20:15.483Z,1.40
2023-03-26T22:23:18.107Z,1.67
2023-03-26T22:26:24.603Z,1.40
2023-03-26T22:32:35.121Z,1.40
2023-03-26T22:35:38.538Z,1.60
2023-03-26T22:38:42.889Z,1.73
2023-03-26T22:41:45.409Z,1.55
2023-03-26T22:44:46.879Z,1.63
2023-03-26T22:47:48.631Z,1.73
2023-03-26T22:51:08.087Z,1.40
2023-03-26T22:54:09.727Z,1.50
2023-03-26T22:57:14.965Z,1.40
2023-03-26T23:00:25.442Z,1.70
2023-03-26T23:03:35.276Z,1.40
2023-03-26T23:06:37.454Z,1.60
2023-03-26T23:09:39.033Z,1.80
2023-03-26T23:13:06.770Z,1.70
2023-03-26T23:16:10.061Z,1.60
2023-03-26T23:19:12.232Z,1.30
2023-03-26T23:22:26.019Z,1.40
2023-03-26T23:25:28.445Z,1.20
2023-03-26T23:28:34.086Z,1.23
2023-03-26T23:31:46.123Z,1.42
2023-03-26T23:34:56.625Z,1.35
2023-03-26T23:38:04.225Z,1.30
2023-03-26T23:41:09.507Z,1.42
2023-03-26T23:44:14.373Z,1.85
2023-03-26T23:47:21.085Z,1.60
2023-03-26T23:53:36.868Z,1.63
2023-03-26T23:56:38.472Z,1.63
2023-03-26T23:59:43.628Z,1.67
